Terminal Aerodrome Forecast
Issued by NWS

Home | Current Version | Previous Version | Text Only | Print | Product List | Glossary On
Versions: 1 2 3 4 5 6 7 8 9 10 11 12
199
FTUS43 KAPX 201136
TAFMBL
TAF
KMBL 201136Z 2012/2112 12006KT P6SM SCT250
     FM210000 14009KT P6SM BKN090
     FM210200 14010G21KT P6SM OVC140 WS020/16045KT
     FM210600 16009KT 5SM SHRA OVC050 WS020/18045KT
     FM210800 19009KT 4SM SHRA OVC015 WS020/20045KT=

USA.gov is the U.S. government's official web portal to all federal, state and local government web resources and services.